createdAt,value
2023-05-03T00:03:35.549Z,8.63
2023-05-03T00:08:35.481Z,8.58
2023-05-03T00:13:35.409Z,8.49
2023-05-03T00:18:35.353Z,8.38
2023-05-03T00:23:35.288Z,8.33
2023-05-03T00:28:35.223Z,8.23
2023-05-03T00:33:35.158Z,8.14
2023-05-03T00:38:35.094Z,8.11
2023-05-03T00:43:35.031Z,8.08
2023-05-03T00:48:34.962Z,8.02
2023-05-03T00:53:34.904Z,7.87
2023-05-03T00:58:34.831Z,7.74
2023-05-03T01:03:34.909Z,7.68
2023-05-03T01:08:34.697Z,7.57
2023-05-03T01:13:34.631Z,7.45
2023-05-03T01:18:34.572Z,7.39
2023-05-03T01:23:34.508Z,7.28
2023-05-03T01:28:34.436Z,7.20
2023-05-03T01:33:34.362Z,7.17
2023-05-03T01:38:34.310Z,7.11
2023-05-03T01:43:34.232Z,7.10
2023-05-03T01:48:34.176Z,7.05
2023-05-03T01:53:34.109Z,6.97
2023-05-03T01:58:34.044Z,6.92
2023-05-03T02:03:33.969Z,6.87
2023-05-03T02:08:33.914Z,6.91
2023-05-03T02:13:33.842Z,6.88
2023-05-03T02:18:33.781Z,6.92
2023-05-03T02:23:33.707Z,6.95
2023-05-03T02:28:33.803Z,6.88
2023-05-03T02:33:33.578Z,6.87
2023-05-03T02:38:33.777Z,6.91
2023-05-03T02:43:33.443Z,6.92
2023-05-03T02:48:33.393Z,6.88
2023-05-03T02:53:33.309Z,6.83
2023-05-03T02:58:33.267Z,6.76
2023-05-03T03:03:33.300Z,6.74
2023-05-03T03:08:33.138Z,6.77
2023-05-03T03:13:33.057Z,6.74
2023-05-03T03:18:32.998Z,6.74
2023-05-03T03:23:32.925Z,6.77
2023-05-03T03:28:32.865Z,6.74
2023-05-03T03:33:32.800Z,6.73
2023-05-03T03:38:32.734Z,6.71
2023-05-03T03:43:32.661Z,6.73
2023-05-03T03:48:32.603Z,6.71
2023-05-03T03:53:32.529Z,6.71
2023-05-03T03:58:32.477Z,6.73
2023-05-03T04:03:32.460Z,6.74
2023-05-03T04:08:32.327Z,6.76
2023-05-03T04:13:32.270Z,6.76
2023-05-03T04:18:32.209Z,6.76
2023-05-03T04:23:32.146Z,6.68
2023-05-03T04:28:32.067Z,6.71
2023-05-03T04:33:32.004Z,6.84
2023-05-03T04:38:31.929Z,7.10
2023-05-03T04:43:31.869Z,7.51
2023-05-03T04:48:31.804Z,7.58
2023-05-03T04:53:31.736Z,8.91
2023-05-03T04:58:31.690Z,9.61
2023-05-03T05:03:31.799Z,10.20
2023-05-03T05:08:31.529Z,10.81
2023-05-03T05:13:31.465Z,11.75
2023-05-03T05:18:31.452Z,12.49
2023-05-03T05:23:31.400Z,13.28
2023-05-03T05:28:31.266Z,13.73
2023-05-03T05:33:31.317Z,14.33
2023-05-03T05:38:31.138Z,14.93
2023-05-03T05:43:31.076Z,15.39
2023-05-03T05:48:31.007Z,15.65
2023-05-03T05:53:30.978Z,16.25
2023-05-03T05:58:30.872Z,16.73
2023-05-03T06:03:30.865Z,16.08
2023-05-03T06:08:30.743Z,16.19
2023-05-03T06:13:30.684Z,16.35
2023-05-03T06:18:30.613Z,16.96
2023-05-03T06:23:30.551Z,18.17
2023-05-03T06:28:30.484Z,18.71
2023-05-03T06:33:30.438Z,18.84
2023-05-03T06:38:30.361Z,19.85
2023-05-03T06:43:30.310Z,20.14
2023-05-03T06:48:30.266Z,20.16
2023-05-03T06:53:30.167Z,19.82
2023-05-03T06:58:30.089Z,19.72
2023-05-03T07:03:30.136Z,20.07
2023-05-03T07:08:29.957Z,19.43
2023-05-03T07:13:29.889Z,19.69
2023-05-03T07:18:29.821Z,20.73
2023-05-03T07:23:29.765Z,21.88
2023-05-03T07:28:29.698Z,21.61
2023-05-03T07:33:29.703Z,21.54
2023-05-03T07:38:29.565Z,21.20
2023-05-03T07:43:29.511Z,21.39
2023-05-03T07:48:29.421Z,21.40
2023-05-03T07:53:29.372Z,20.29
2023-05-03T07:58:40.073Z,20.65
2023-05-03T08:03:30.448Z,20.64
2023-05-03T08:08:29.162Z,21.85
2023-05-03T08:13:29.130Z,22.78
2023-05-03T08:18:29.066Z,21.98
2023-05-03T08:23:29.016Z,21.90
2023-05-03T08:28:28.918Z,22.03
2023-05-03T08:33:28.848Z,21.36
2023-05-03T08:38:28.797Z,20.18
2023-05-03T08:43:28.816Z,20.62
2023-05-03T08:48:30.629Z,22.17
2023-05-03T08:53:28.588Z,21.13
2023-05-03T08:58:28.530Z,20.94
2023-05-03T09:03:28.621Z,19.35
2023-05-03T09:08:28.381Z,18.75
2023-05-03T09:13:28.323Z,20.95
2023-05-03T09:18:28.246Z,22.27
2023-05-03T09:23:28.207Z,21.39
2023-05-03T09:28:28.177Z,21.75
2023-05-03T09:33:28.066Z,23.46
2023-05-03T09:38:28.031Z,23.77
2023-05-03T09:43:27.930Z,23.86
2023-05-03T09:48:27.868Z,22.44
2023-05-03T09:53:27.807Z,22.72
2023-05-03T09:58:27.741Z,21.58
2023-05-03T10:03:27.697Z,19.91
2023-05-03T10:08:27.615Z,20.28
2023-05-03T10:13:27.544Z,21.27
2023-05-03T10:18:27.554Z,22.28
2023-05-03T10:23:27.413Z,21.61
2023-05-03T10:28:27.351Z,20.44
2023-05-03T10:33:27.278Z,20.83
2023-05-03T10:38:27.214Z,19.63
2023-05-03T10:43:27.146Z,20.22
2023-05-03T10:48:27.068Z,19.95
2023-05-03T10:53:27.016Z,20.69
2023-05-03T10:58:27.052Z,20.80
2023-05-03T11:03:26.878Z,20.02
2023-05-03T11:08:26.799Z,19.48
2023-05-03T11:13:26.827Z,19.69
2023-05-03T11:18:26.709Z,18.33
2023-05-03T11:23:26.642Z,17.99
2023-05-03T11:28:26.576Z,17.69
2023-05-03T11:33:26.475Z,17.59
2023-05-03T11:38:26.402Z,18.34
2023-05-03T11:43:26.354Z,18.53
2023-05-03T11:48:26.359Z,17.82
2023-05-03T11:53:26.239Z,17.54
2023-05-03T11:58:26.161Z,17.16
2023-05-03T12:03:30.666Z,16.99
2023-05-03T12:08:26.658Z,16.60
2023-05-03T12:13:26.346Z,16.55
2023-05-03T12:18:26.034Z,16.78
2023-05-03T12:23:26.679Z,17.01
2023-05-03T12:28:26.038Z,16.96
2023-05-03T12:33:28.179Z,15.55
2023-05-03T12:38:25.835Z,15.46
2023-05-03T12:43:25.639Z,15.97
2023-05-03T12:48:25.813Z,16.52
2023-05-03T12:53:26.142Z,16.53
2023-05-03T12:58:52.943Z,16.78
2023-05-03T13:03:32.709Z,16.96
2023-05-03T13:08:33.079Z,16.53
2023-05-03T13:13:25.196Z,16.31
2023-05-03T13:18:25.154Z,16.46
2023-05-03T13:23:25.085Z,16.59
2023-05-03T13:28:25.007Z,16.46
2023-05-03T13:33:25.020Z,15.62
2023-05-03T13:38:24.849Z,15.21
2023-05-03T13:43:24.791Z,15.05
2023-05-03T13:48:24.747Z,15.17
2023-05-03T13:53:24.673Z,15.32
2023-05-03T13:58:24.595Z,15.39
2023-05-03T14:03:24.615Z,15.65
2023-05-03T14:08:24.452Z,15.86
2023-05-03T14:13:24.495Z,15.57
2023-05-03T14:18:24.341Z,15.55
2023-05-03T14:23:24.265Z,15.41
2023-05-03T14:28:24.183Z,15.28
2023-05-03T14:33:24.121Z,15.09
2023-05-03T14:38:24.049Z,15.09
2023-05-03T14:43:23.995Z,14.96
2023-05-03T14:48:23.920Z,14.88
2023-05-03T14:53:23.855Z,14.85
2023-05-03T14:58:23.795Z,14.60
2023-05-03T15:03:23.775Z,14.32
2023-05-03T15:08:23.806Z,14.50
2023-05-03T15:13:24.004Z,14.48
2023-05-03T15:18:23.899Z,14.48
2023-05-03T15:23:23.468Z,14.48
2023-05-03T15:28:23.490Z,14.51
2023-05-03T15:33:23.361Z,14.45
2023-05-03T15:38:23.253Z,14.33
2023-05-03T15:43:23.200Z,14.36
2023-05-03T15:48:23.127Z,14.40
2023-05-03T15:53:23.085Z,14.40
2023-05-03T15:58:22.997Z,14.37
2023-05-03T16:03:22.952Z,14.30
2023-05-03T16:08:22.874Z,14.12
2023-05-03T16:13:22.832Z,14.20
2023-05-03T16:18:22.759Z,14.15
2023-05-03T16:23:22.690Z,14.14
2023-05-03T16:28:22.619Z,14.12
2023-05-03T16:33:22.565Z,14.22
2023-05-03T16:38:22.492Z,14.30
2023-05-03T16:43:22.431Z,14.37
2023-05-03T16:48:22.405Z,14.58
2023-05-03T16:53:22.339Z,14.45
2023-05-03T16:58:22.230Z,14.30
2023-05-03T17:03:22.421Z,14.15
2023-05-03T17:08:22.105Z,14.11
2023-05-03T17:13:22.045Z,14.12
2023-05-03T17:18:21.977Z,14.08
2023-05-03T17:23:21.918Z,13.99
2023-05-03T17:28:21.853Z,13.96
2023-05-03T17:33:21.788Z,13.91
2023-05-03T17:38:21.715Z,13.88
2023-05-03T17:43:21.660Z,13.84
2023-05-03T17:48:21.588Z,13.78
2023-05-03T17:53:21.534Z,13.76
2023-05-03T17:58:21.466Z,13.73
2023-05-03T18:03:21.511Z,13.64
2023-05-03T18:08:21.337Z,13.59
2023-05-03T18:13:21.356Z,13.51
2023-05-03T18:18:21.204Z,13.37
2023-05-03T18:23:21.152Z,13.20
2023-05-03T18:28:21.077Z,13.09
2023-05-03T18:33:21.023Z,12.93
2023-05-03T18:38:20.945Z,12.80
2023-05-03T18:43:20.890Z,12.68
2023-05-03T18:48:20.822Z,12.57
2023-05-03T18:53:20.761Z,12.34
2023-05-03T18:58:20.683Z,12.09
2023-05-03T19:03:20.655Z,11.88
2023-05-03T19:08:20.561Z,11.70
2023-05-03T19:13:20.544Z,11.51
2023-05-03T19:18:20.425Z,11.35
2023-05-03T19:23:20.361Z,11.14
2023-05-03T19:28:20.289Z,10.95
2023-05-03T19:33:20.246Z,10.71
2023-05-03T19:38:20.159Z,10.52
2023-05-03T19:43:20.103Z,10.33
2023-05-03T19:48:20.034Z,10.13
2023-05-03T19:53:19.995Z,9.97
2023-05-03T19:58:19.896Z,9.82
2023-05-03T20:03:19.978Z,9.67
2023-05-03T20:08:19.763Z,9.54
2023-05-03T20:13:19.750Z,9.39
2023-05-03T20:18:19.631Z,9.27
2023-05-03T20:23:19.567Z,9.15
2023-05-03T20:28:19.552Z,9.02
2023-05-03T20:33:19.446Z,8.87
2023-05-03T20:38:19.386Z,8.74
2023-05-03T20:43:19.308Z,8.64
2023-05-03T20:48:19.273Z,8.60
2023-05-03T20:53:19.188Z,8.51
2023-05-03T20:58:19.130Z,8.51
2023-05-03T21:03:19.197Z,8.48
2023-05-03T21:08:18.984Z,8.42
2023-05-03T21:13:19.039Z,8.33
2023-05-03T21:18:18.854Z,8.19
2023-05-03T21:23:18.776Z,8.09
2023-05-03T21:28:18.723Z,8.02
2023-05-03T21:33:18.692Z,7.86
2023-05-03T21:38:18.592Z,7.76
2023-05-03T21:43:18.534Z,7.69
2023-05-03T21:48:18.473Z,7.61
2023-05-03T21:53:18.391Z,7.53
2023-05-03T21:58:18.329Z,7.43
2023-05-03T22:03:18.358Z,7.39
2023-05-03T22:08:18.253Z,7.39
2023-05-03T22:13:18.139Z,7.31
2023-05-03T22:18:18.070Z,7.20
2023-05-03T22:23:18.015Z,7.11
2023-05-03T22:28:17.930Z,7.07
2023-05-03T22:33:17.902Z,7.06
2023-05-03T22:38:17.803Z,7.03
2023-05-03T22:43:17.730Z,6.96
2023-05-03T22:48:17.676Z,6.87
2023-05-03T22:53:17.599Z,6.84
2023-05-03T22:58:17.540Z,6.80
2023-05-03T23:03:17.548Z,6.76
2023-05-03T23:08:17.412Z,6.74
2023-05-03T23:13:17.444Z,6.66
2023-05-03T23:18:17.280Z,6.58
2023-05-03T23:23:17.216Z,6.56
2023-05-03T23:28:17.159Z,6.59
2023-05-03T23:33:17.098Z,6.53
2023-05-03T23:38:17.041Z,6.38
2023-05-03T23:43:16.954Z,6.25
2023-05-03T23:48:16.881Z,6.16
2023-05-03T23:53:16.812Z,6.14
2023-05-03T23:58:16.762Z,6.09
